KCRW/CRW METAR and TAF weather

Enter ICAO airport designator
Station Type Date Time Source
KCRW METAR 2020/02/27 13:54 UTC NOAA

KCRW 271354Z 28016G20KT 9SM -SN BKN021 OVC047 M02/M08 A3005 RMK AO2 SLP184 P0000 T10221083


Station Type Date Time Source
KCRW Decoded METAR 2020/02/27 13:54 UTC NOAA

YEAGER AIRPORT, WV, United States (KCRW) 38-22N 081-36W 309M
Feb 27, 2020 - 08:54 AM EST / 2020.02.27 1354 UTC
Wind: from the W (280 degrees) at 18 MPH (16 KT) gusting to 23 MPH (20 KT):0
Visibility: 9 mile(s):0
Sky conditions: overcast
Weather: light snow
Precipitation last hour: A trace
Temperature: 28.0 F (-2.2 C)
Windchill: 15 F (-9 C):1
Dew Point: 17.1 F (-8.3 C)
Relative Humidity: 62%
Pressure (altimeter): 30.05 in. Hg (1017 hPa)
ob: KCRW 271354Z 28016G20KT 9SM -SN BKN021 OVC047 M02/M08 A3005 RMK AO2 SLP184 P0000 T10221083
cycle: 14

Station Type Date Time Source
KCRW TAF 2020/02/27 12:40 UTC NOAA

TAF KCRW 271138Z 2712/2812 28011G20KT 5SM -SN OVC015
FM271500 27013G22KT 6SM -SN OVC025
FM271800 27014G24KT P6SM -SN OVC035
FM272000 24008G14KT P6SM BKN035
FM281000 24011KT 6SM -SN BKN028

Example: see airport list